Strona główna
METAR-TAF:

METAR-TAF

Lotnisko :

Culdrose, Anglia

Szerokość geograficzna: 50-05N, Długość geograficzna: 005-15W, wysokość: 78 m

Aktualna obserwacja pogody

Raport powstał 17 minut temu, godzina 18:15 UTC
Wiatr 9 kt od północno-północny zachód
Temperatura 16°C
Wilgotność 72%
Ciśnienie 1026 hPa
Widzialność 10 km lub więcej
Mało chmury na wysokości 3000 ft

METAR: EGDR 121815Z 34009KT 9999 FEW030 16/11 Q1026 NOSIG RMK BLU BLU

czas: 19:32 (18:32 UTC)

Prognoza

Raport powstał 2 godziny i 9 minut temu, godzina 16:23 UTC
Prognoza ważna od 12 godzina 18 UTC do 13 godzina 03 UTC
Wiatr 11 kt od północno-północny zachód
Widzialność 10 km lub więcej
Brak chmur poniżej 1500 m i brak chmur cumulonimbus

TAF: EGDR 121623Z 1218/1303 33011KT CAVOK

Obserwacja i prognoza pogody dla ponad 4000 lotnisk (raport METAR i TAF).

Dostępne stacje oznaczono żółtymi i czerwonymi punktami na mapie.

Najedź kursorem aby zobaczyć nazwę stacji.

Kliknij aby zobaczyć obserwacje i prognozy pogody.

Aby zmienić mapę: kliknij na zielony przycisk z czarnym krzyżykiem, aby powiększyć; na zielony przycisk z myślnikiem, aby pomniejszyć; na zielone strzałki, aby przejść do map sąsiednich.


METAR-TAF: